createdAt,value
2022-10-10T00:00:52.851Z,8.18
2022-10-10T00:01:52.882Z,8.18
2022-10-10T00:02:53.166Z,8.17
2022-10-10T00:03:52.818Z,8.17
2022-10-10T00:04:52.799Z,8.17
2022-10-10T00:05:52.790Z,8.15
2022-10-10T00:06:52.806Z,8.17
2022-10-10T00:07:52.767Z,8.18
2022-10-10T00:08:52.759Z,8.20
2022-10-10T00:09:52.748Z,8.21
2022-10-10T00:10:52.745Z,8.18
2022-10-10T00:11:52.742Z,8.18
2022-10-10T00:12:53.096Z,8.17
2022-10-10T00:13:52.708Z,8.17
2022-10-10T00:14:52.690Z,8.15
2022-10-10T00:15:52.679Z,8.12
2022-10-10T00:16:52.689Z,8.11
2022-10-10T00:17:59.225Z,8.07
2022-10-10T00:18:52.640Z,8.10
2022-10-10T00:19:52.625Z,8.08
2022-10-10T00:20:52.614Z,8.07
2022-10-10T00:21:52.628Z,8.08
2022-10-10T00:22:53.112Z,8.07
2022-10-10T00:23:52.586Z,8.04
2022-10-10T00:24:52.568Z,8.02
2022-10-10T00:25:52.622Z,8.03
2022-10-10T00:26:52.588Z,8.08
2022-10-10T00:27:52.536Z,8.11
2022-10-10T00:28:52.537Z,8.11
2022-10-10T00:29:52.559Z,8.11
2022-10-10T00:30:52.516Z,8.12
2022-10-10T00:31:52.552Z,8.10
2022-10-10T00:32:52.886Z,8.10
2022-10-10T00:33:52.484Z,8.11
2022-10-10T00:34:52.464Z,8.10
2022-10-10T00:35:52.453Z,8.10
2022-10-10T00:36:52.465Z,8.08
2022-10-10T00:37:52.427Z,8.07
2022-10-10T00:38:52.438Z,8.12
2022-10-10T00:39:52.403Z,8.12
2022-10-10T00:40:52.467Z,8.14
2022-10-10T00:41:52.410Z,8.14
2022-10-10T00:42:52.670Z,8.14
2022-10-10T00:43:52.371Z,8.14
2022-10-10T00:44:52.346Z,8.15
2022-10-10T00:45:52.353Z,8.14
2022-10-10T00:46:52.375Z,8.12
2022-10-10T00:47:52.328Z,8.11
2022-10-10T00:48:52.317Z,8.12
2022-10-10T00:49:52.306Z,8.11
2022-10-10T00:50:52.287Z,8.10
2022-10-10T00:51:52.299Z,8.11
2022-10-10T00:52:52.717Z,8.10
2022-10-10T00:53:52.261Z,8.08
2022-10-10T00:54:52.238Z,8.08
2022-10-10T00:55:52.237Z,8.08
2022-10-10T00:56:52.235Z,8.08
2022-10-10T00:57:52.216Z,8.07
2022-10-10T00:58:52.208Z,8.03
2022-10-10T00:59:52.191Z,8.02
2022-10-10T01:00:52.211Z,7.99
2022-10-10T01:01:52.209Z,7.97
2022-10-10T01:02:52.792Z,7.97
2022-10-10T01:03:52.155Z,7.96
2022-10-10T01:04:52.132Z,7.96
2022-10-10T01:05:52.130Z,7.94
2022-10-10T01:06:52.122Z,7.93
2022-10-10T01:07:52.098Z,7.92
2022-10-10T01:08:52.088Z,7.90
2022-10-10T01:09:52.097Z,7.89
2022-10-10T01:10:52.065Z,7.89
2022-10-10T01:11:52.070Z,7.87
2022-10-10T01:12:52.375Z,7.85
2022-10-10T01:13:52.061Z,7.87
2022-10-10T01:14:52.019Z,7.85
2022-10-10T01:15:52.002Z,7.84
2022-10-10T01:16:52.018Z,7.84
2022-10-10T01:17:51.983Z,7.82
2022-10-10T01:18:51.974Z,7.82
2022-10-10T01:19:51.961Z,7.82
2022-10-10T01:20:51.950Z,7.82
2022-10-10T01:21:51.970Z,7.81
2022-10-10T01:22:52.398Z,7.79
2022-10-10T01:23:51.918Z,7.79
2022-10-10T01:24:51.916Z,7.79
2022-10-10T01:25:51.902Z,7.79
2022-10-10T01:26:51.902Z,7.78
2022-10-10T01:27:51.887Z,7.78
2022-10-10T01:28:51.870Z,7.79
2022-10-10T01:29:51.855Z,7.79
2022-10-10T01:30:51.832Z,7.78
2022-10-10T01:31:51.855Z,7.77
2022-10-10T01:32:52.197Z,7.75
2022-10-10T01:33:51.802Z,7.74
2022-10-10T01:34:51.799Z,7.74
2022-10-10T01:35:51.789Z,7.74
2022-10-10T01:36:51.783Z,7.72
2022-10-10T01:37:51.768Z,7.71
2022-10-10T01:38:51.753Z,7.69
2022-10-10T01:39:51.740Z,7.66
2022-10-10T01:40:51.723Z,7.67
2022-10-10T01:41:51.758Z,7.72
2022-10-10T01:42:52.263Z,7.77
2022-10-10T01:43:51.699Z,7.79
2022-10-10T01:44:51.678Z,7.81
2022-10-10T01:45:51.674Z,7.79
2022-10-10T01:46:51.666Z,7.79
2022-10-10T01:47:51.669Z,7.77
2022-10-10T01:48:51.643Z,7.77
2022-10-10T01:49:51.642Z,7.75
2022-10-10T01:50:51.618Z,7.72
2022-10-10T01:51:51.608Z,7.72
2022-10-10T01:52:52.081Z,7.71
2022-10-10T01:53:51.589Z,7.71
2022-10-10T01:54:51.571Z,7.69
2022-10-10T01:55:51.560Z,7.67
2022-10-10T01:56:51.563Z,7.67
2022-10-10T01:57:51.577Z,7.62
2022-10-10T01:58:51.531Z,7.63
2022-10-10T01:59:51.526Z,7.60
2022-10-10T02:00:51.534Z,7.60
2022-10-10T02:01:51.489Z,7.60
2022-10-10T02:02:51.761Z,7.59
2022-10-10T02:03:51.495Z,7.60
2022-10-10T02:04:51.458Z,7.59
2022-10-10T02:05:51.469Z,7.59
2022-10-10T02:06:51.432Z,7.58
2022-10-10T02:07:51.456Z,7.59
2022-10-10T02:08:51.421Z,7.58
2022-10-10T02:09:51.422Z,7.58
2022-10-10T02:10:51.414Z,7.58
2022-10-10T02:11:51.391Z,7.56
2022-10-10T02:12:51.796Z,7.55
2022-10-10T02:13:51.359Z,7.56
2022-10-10T02:14:51.353Z,7.56
2022-10-10T02:15:51.344Z,7.56
2022-10-10T02:16:51.335Z,7.55
2022-10-10T02:17:51.348Z,7.53
2022-10-10T02:18:51.311Z,7.53
2022-10-10T02:19:51.310Z,7.53
2022-10-10T02:20:51.298Z,7.52
2022-10-10T02:21:51.283Z,7.53
2022-10-10T02:22:51.627Z,7.52
2022-10-10T02:23:51.249Z,7.52
2022-10-10T02:24:51.242Z,7.50
2022-10-10T02:25:51.235Z,7.49
2022-10-10T02:26:51.221Z,7.49
2022-10-10T02:27:51.228Z,7.49
2022-10-10T02:28:51.194Z,7.47
2022-10-10T02:29:51.191Z,7.47
2022-10-10T02:30:51.175Z,7.47
2022-10-10T02:31:51.180Z,7.52
2022-10-10T02:32:51.403Z,7.50
2022-10-10T02:33:51.143Z,7.49
2022-10-10T02:34:51.130Z,7.50
2022-10-10T02:35:51.127Z,7.50
2022-10-10T02:36:51.103Z,7.47
2022-10-10T02:37:51.116Z,7.47
2022-10-10T02:38:51.084Z,7.49
2022-10-10T02:39:51.066Z,7.49
2022-10-10T02:40:51.061Z,7.47
2022-10-10T02:41:51.058Z,7.47
2022-10-10T02:42:51.365Z,7.49
2022-10-10T02:43:51.060Z,7.53
2022-10-10T02:44:51.025Z,7.55
2022-10-10T02:45:51.003Z,7.55
2022-10-10T02:46:51.004Z,7.53
2022-10-10T02:47:51.009Z,7.53
2022-10-10T02:48:50.971Z,7.50
2022-10-10T02:49:50.977Z,7.52
2022-10-10T02:50:50.954Z,7.49
2022-10-10T02:51:51.005Z,7.45
2022-10-10T02:52:51.241Z,7.47
2022-10-10T02:53:50.923Z,7.45
2022-10-10T02:54:50.920Z,7.47
2022-10-10T02:55:50.912Z,7.45
2022-10-10T02:56:50.895Z,7.45
2022-10-10T02:57:50.900Z,7.45
2022-10-10T02:58:50.864Z,7.44
2022-10-10T02:59:50.870Z,7.45
2022-10-10T03:00:50.898Z,7.45
2022-10-10T03:01:50.839Z,7.44
2022-10-10T03:02:51.047Z,7.44
2022-10-10T03:03:50.812Z,7.42
2022-10-10T03:04:50.797Z,7.44
2022-10-10T03:05:50.854Z,7.47
2022-10-10T03:06:50.781Z,7.47
2022-10-10T03:07:50.782Z,7.49
2022-10-10T03:08:50.748Z,7.52
2022-10-10T03:09:50.746Z,7.56
2022-10-10T03:10:50.727Z,7.59
2022-10-10T03:11:50.790Z,7.59
2022-10-10T03:12:50.970Z,7.62
2022-10-10T03:13:50.703Z,7.62
2022-10-10T03:14:50.693Z,7.62
2022-10-10T03:15:50.678Z,7.62
2022-10-10T03:16:50.654Z,7.62
2022-10-10T03:17:50.680Z,7.63
2022-10-10T03:18:50.642Z,7.67
2022-10-10T03:19:50.629Z,7.67
2022-10-10T03:20:50.619Z,7.63
2022-10-10T03:21:50.608Z,7.63
2022-10-10T03:22:50.882Z,7.62
2022-10-10T03:23:50.597Z,7.63
2022-10-10T03:24:50.584Z,7.66
2022-10-10T03:25:50.582Z,7.66
2022-10-10T03:26:50.560Z,7.67
2022-10-10T03:27:50.568Z,7.69
2022-10-10T03:28:50.525Z,7.67
2022-10-10T03:29:50.522Z,7.69
2022-10-10T03:30:50.509Z,7.69
2022-10-10T03:31:50.502Z,7.67
2022-10-10T03:32:50.717Z,7.67
2022-10-10T03:33:50.479Z,7.67
2022-10-10T03:34:50.486Z,7.69
2022-10-10T03:35:50.470Z,7.79
2022-10-10T03:36:50.439Z,7.82
2022-10-10T03:37:50.482Z,7.84
2022-10-10T03:38:50.442Z,7.84
2022-10-10T03:39:50.412Z,7.84
2022-10-10T03:40:50.418Z,7.87
2022-10-10T03:41:50.404Z,7.89
2022-10-10T03:42:50.632Z,7.87
2022-10-10T03:43:50.380Z,7.89
2022-10-10T03:44:50.355Z,7.87
2022-10-10T03:45:50.349Z,7.85
2022-10-10T03:46:50.339Z,7.84
2022-10-10T03:47:50.343Z,7.81
2022-10-10T03:48:50.314Z,7.79
2022-10-10T03:49:50.300Z,7.79
2022-10-10T03:50:50.291Z,7.78
2022-10-10T03:51:50.273Z,7.77
2022-10-10T03:52:50.643Z,7.77
2022-10-10T03:53:50.255Z,7.75
2022-10-10T03:54:50.237Z,7.75
2022-10-10T03:55:50.244Z,7.77
2022-10-10T03:56:50.221Z,7.75
2022-10-10T03:57:50.233Z,7.75
2022-10-10T03:58:50.207Z,7.72
2022-10-10T03:59:50.202Z,7.78
2022-10-10T04:00:50.180Z,7.81
2022-10-10T04:01:50.174Z,7.81
2022-10-10T04:02:50.484Z,7.79
2022-10-10T04:03:52.318Z,7.79
2022-10-10T04:04:50.134Z,7.78
2022-10-10T04:05:50.132Z,7.78
2022-10-10T04:06:50.119Z,7.78
2022-10-10T04:07:50.127Z,7.77
2022-10-10T04:08:50.093Z,7.75
2022-10-10T04:09:50.088Z,7.75
2022-10-10T04:10:50.069Z,7.72
2022-10-10T04:11:50.064Z,7.71
2022-10-10T04:12:50.426Z,7.71
2022-10-10T04:13:50.032Z,7.69
2022-10-10T04:14:50.016Z,7.67
2022-10-10T04:15:50.011Z,7.67
2022-10-10T04:16:50.004Z,7.63
2022-10-10T04:17:50.004Z,7.62
2022-10-10T04:18:49.976Z,7.63
2022-10-10T04:19:49.973Z,7.63
2022-10-10T04:20:49.952Z,7.63
2022-10-10T04:21:49.948Z,7.63
2022-10-10T04:22:50.176Z,7.63
2022-10-10T04:23:49.923Z,7.62
2022-10-10T04:24:49.916Z,7.60
2022-10-10T04:25:49.904Z,7.60
2022-10-10T04:26:49.885Z,7.60
2022-10-10T04:27:49.901Z,7.59
2022-10-10T04:28:49.879Z,7.59
2022-10-10T04:29:49.854Z,7.59
2022-10-10T04:30:49.861Z,7.56
2022-10-10T04:31:49.830Z,7.58
2022-10-10T04:32:50.164Z,7.56
2022-10-10T04:33:49.823Z,7.56
2022-10-10T04:34:49.810Z,7.55
2022-10-10T04:35:49.787Z,7.53
2022-10-10T04:36:49.774Z,7.53
2022-10-10T04:37:49.783Z,7.52
2022-10-10T04:38:49.771Z,7.53
2022-10-10T04:39:49.746Z,7.53
2022-10-10T04:40:49.740Z,7.55
2022-10-10T04:41:49.797Z,7.53
2022-10-10T04:42:49.985Z,7.52
2022-10-10T04:43:49.726Z,7.53
2022-10-10T04:44:49.695Z,7.52
2022-10-10T04:45:49.693Z,7.52
2022-10-10T04:46:49.675Z,7.53
2022-10-10T04:47:49.652Z,7.50
2022-10-10T04:48:49.672Z,7.50
2022-10-10T04:49:49.630Z,7.49
2022-10-10T04:50:49.646Z,7.50
2022-10-10T04:51:49.607Z,7.50
2022-10-10T04:52:49.889Z,7.47
2022-10-10T04:53:50.683Z,7.47
2022-10-10T04:54:49.581Z,7.47
2022-10-10T04:55:49.581Z,7.47
2022-10-10T04:56:49.548Z,7.50
2022-10-10T04:57:49.558Z,7.50
2022-10-10T04:58:49.549Z,7.49
2022-10-10T04:59:49.518Z,7.49
2022-10-10T05:00:49.512Z,7.50
2022-10-10T05:01:49.498Z,7.49
2022-10-10T05:02:49.798Z,7.45
2022-10-10T05:03:49.497Z,7.45
2022-10-10T05:04:49.479Z,7.45
2022-10-10T05:05:49.466Z,7.49
2022-10-10T05:06:49.441Z,7.50
2022-10-10T05:07:54.461Z,7.50
2022-10-10T05:08:49.445Z,7.50
2022-10-10T05:09:49.413Z,7.50
2022-10-10T05:10:49.411Z,7.47
2022-10-10T05:11:49.384Z,7.45
2022-10-10T05:12:49.730Z,7.45
2022-10-10T05:13:49.393Z,7.45
2022-10-10T05:14:49.362Z,7.45
2022-10-10T05:15:49.365Z,7.47
2022-10-10T05:16:49.324Z,7.45
2022-10-10T05:17:49.325Z,7.47
2022-10-10T05:18:49.319Z,7.45
2022-10-10T05:19:49.292Z,7.45
2022-10-10T05:20:49.283Z,7.45
2022-10-10T05:21:49.280Z,7.45
2022-10-10T05:22:49.631Z,7.44
2022-10-10T05:23:49.269Z,7.42
2022-10-10T05:24:49.245Z,7.42
2022-10-10T05:25:49.226Z,7.42
2022-10-10T05:26:49.224Z,7.41
2022-10-10T05:27:49.214Z,7.38
2022-10-10T05:28:49.205Z,7.38
2022-10-10T05:29:49.183Z,7.35
2022-10-10T05:30:49.175Z,7.34
2022-10-10T05:31:49.169Z,7.34
2022-10-10T05:32:49.570Z,7.32
2022-10-10T05:33:49.177Z,7.34
2022-10-10T05:34:49.128Z,7.31
2022-10-10T05:35:49.115Z,7.31
2022-10-10T05:36:49.103Z,7.29
2022-10-10T05:37:49.093Z,7.27
2022-10-10T05:38:49.095Z,7.31
2022-10-10T05:39:53.682Z,7.29
2022-10-10T05:40:49.071Z,7.29
2022-10-10T05:41:49.048Z,7.32
2022-10-10T05:42:49.349Z,7.34
2022-10-10T05:43:49.082Z,7.34
2022-10-10T05:44:49.024Z,7.37
2022-10-10T05:45:49.010Z,7.38
2022-10-10T05:46:48.996Z,7.37
2022-10-10T05:47:48.984Z,7.38
2022-10-10T05:48:48.976Z,7.40
2022-10-10T05:49:48.964Z,7.40
2022-10-10T05:50:48.959Z,7.40
2022-10-10T05:51:48.943Z,7.41
2022-10-10T05:52:49.286Z,7.41
2022-10-10T05:53:48.936Z,7.40
2022-10-10T05:54:48.911Z,7.41
2022-10-10T05:55:48.924Z,7.42
2022-10-10T05:56:48.879Z,7.42
2022-10-10T05:57:48.886Z,7.44
2022-10-10T05:58:48.890Z,7.42
2022-10-10T05:59:48.861Z,7.41
2022-10-10T06:00:48.843Z,7.42
2022-10-10T06:01:48.845Z,7.44
2022-10-10T06:02:49.305Z,7.44
2022-10-10T06:03:48.843Z,7.41
2022-10-10T06:04:48.802Z,7.40
2022-10-10T06:05:48.813Z,7.42
2022-10-10T06:06:48.811Z,7.42
2022-10-10T06:08:09.278Z,7.41
2022-10-10T06:08:48.778Z,7.42
2022-10-10T06:09:48.752Z,7.42
2022-10-10T06:10:48.735Z,7.42
2022-10-10T06:11:48.739Z,7.42
2022-10-10T06:12:48.960Z,7.42
2022-10-10T06:13:48.718Z,7.42
2022-10-10T06:14:48.697Z,7.44
2022-10-10T06:15:48.688Z,7.44
2022-10-10T06:16:48.673Z,7.49
2022-10-10T06:18:59.265Z,7.49
2022-10-10T06:20:00.244Z,7.49
2022-10-10T06:21:00.238Z,7.47
2022-10-10T06:22:00.219Z,7.49
2022-10-10T06:23:00.222Z,7.49
2022-10-10T06:24:00.220Z,7.49
2022-10-10T06:25:00.200Z,7.49
2022-10-10T06:26:00.181Z,7.49
2022-10-10T06:27:00.170Z,7.49
2022-10-10T06:28:00.166Z,7.52
2022-10-10T06:29:00.162Z,7.50
2022-10-10T06:30:00.138Z,7.52
2022-10-10T06:31:00.130Z,7.55
2022-10-10T06:32:00.107Z,7.56
2022-10-10T06:33:00.495Z,7.59
2022-10-10T06:34:00.111Z,7.58
2022-10-10T06:35:00.099Z,7.58
2022-10-10T06:36:00.092Z,7.62
2022-10-10T06:37:00.073Z,7.62
2022-10-10T06:38:00.056Z,7.66
2022-10-10T06:39:00.061Z,7.66
2022-10-10T06:40:00.043Z,7.67
2022-10-10T06:41:00.595Z,7.66
2022-10-10T06:42:00.020Z,7.66
2022-10-10T06:43:00.000Z,7.69
2022-10-10T06:44:00.001Z,7.69
2022-10-10T06:44:59.988Z,7.72
2022-10-10T06:45:59.952Z,7.74
2022-10-10T06:46:59.972Z,7.74
2022-10-10T06:47:59.948Z,7.75
2022-10-10T06:48:59.941Z,7.77
2022-10-10T06:49:59.931Z,7.74
2022-10-10T06:50:59.905Z,7.75
2022-10-10T06:51:59.942Z,7.74
2022-10-10T06:52:59.885Z,7.75
2022-10-10T06:53:59.921Z,7.75
2022-10-10T06:54:59.884Z,7.77
2022-10-10T06:55:59.966Z,7.78
2022-10-10T06:56:59.837Z,7.79
2022-10-10T06:57:59.833Z,7.79
2022-10-10T06:58:59.835Z,7.81
2022-10-10T06:59:59.857Z,7.81
2022-10-10T07:00:59.801Z,7.82
2022-10-10T07:01:59.796Z,7.84
2022-10-10T07:02:59.776Z,7.85
2022-10-10T07:04:02.621Z,7.87
2022-10-10T07:04:59.756Z,7.92
2022-10-10T07:05:59.734Z,7.90
2022-10-10T07:06:59.725Z,7.94
2022-10-10T07:07:59.742Z,7.96
2022-10-10T07:08:59.721Z,7.97
2022-10-10T07:09:59.688Z,8.02
2022-10-10T07:10:59.678Z,8.03
2022-10-10T07:11:59.673Z,8.03
2022-10-10T07:12:59.661Z,8.04
2022-10-10T07:13:59.665Z,8.07
2022-10-10T07:14:59.632Z,8.07
2022-10-10T07:15:59.640Z,8.08
2022-10-10T07:16:59.644Z,8.12
2022-10-10T07:17:59.630Z,8.14
2022-10-10T07:18:59.642Z,8.14
2022-10-10T07:19:59.621Z,8.17
2022-10-10T07:20:59.602Z,8.21
2022-10-10T07:21:59.564Z,8.22
2022-10-10T07:22:59.580Z,8.26
2022-10-10T07:23:59.570Z,8.30
2022-10-10T07:24:59.557Z,8.32
2022-10-10T07:25:59.510Z,8.36
2022-10-10T07:27:06.243Z,8.39
2022-10-10T07:27:59.505Z,8.39
2022-10-10T07:28:59.529Z,8.39
2022-10-10T07:29:59.498Z,8.37
2022-10-10T07:30:59.476Z,8.37
2022-10-10T07:31:59.468Z,8.39
2022-10-10T07:32:59.451Z,8.39
2022-10-10T07:33:59.438Z,8.40
2022-10-10T07:34:59.436Z,8.44
2022-10-10T07:35:59.429Z,8.45
2022-10-10T07:36:59.407Z,8.50
2022-10-10T07:37:59.380Z,8.53
2022-10-10T07:38:59.392Z,8.55
2022-10-10T07:39:59.406Z,8.57
2022-10-10T07:40:59.439Z,8.58
2022-10-10T07:41:59.359Z,8.63
2022-10-10T07:42:59.356Z,8.69
2022-10-10T07:43:59.359Z,8.71
2022-10-10T07:44:59.314Z,8.75
2022-10-10T07:46:58.291Z,8.84
2022-10-10T07:47:59.282Z,8.90
2022-10-10T07:48:59.310Z,8.93
2022-10-10T07:49:59.282Z,8.94
2022-10-10T07:50:59.305Z,8.96
2022-10-10T07:52:01.583Z,8.96
2022-10-10T07:52:59.220Z,8.97
2022-10-10T07:53:59.229Z,8.99
2022-10-10T07:54:59.200Z,8.94
2022-10-10T07:55:59.259Z,8.94
2022-10-10T07:56:59.194Z,8.96
2022-10-10T07:57:59.798Z,8.97
2022-10-10T07:58:59.191Z,9.01
2022-10-10T07:59:59.139Z,9.04
2022-10-10T08:00:59.207Z,9.05
2022-10-10T08:01:59.208Z,9.05
2022-10-10T08:02:59.100Z,9.05
2022-10-10T08:03:59.110Z,9.06
2022-10-10T08:04:59.120Z,9.06
2022-10-10T08:05:59.068Z,9.09
2022-10-10T08:06:59.075Z,9.13
2022-10-10T08:07:59.087Z,9.15
2022-10-10T08:08:59.069Z,9.18
2022-10-10T08:09:59.058Z,9.20
2022-10-10T08:10:59.035Z,9.20
2022-10-10T08:11:59.033Z,9.20
2022-10-10T08:12:59.030Z,9.18
2022-10-10T08:13:59.025Z,9.23
2022-10-10T08:14:59.054Z,9.24
2022-10-10T08:15:58.978Z,9.24
2022-10-10T08:16:58.966Z,9.31
2022-10-10T08:17:58.938Z,9.34
2022-10-10T08:18:58.976Z,9.39
2022-10-10T08:19:58.909Z,9.43
2022-10-10T08:20:58.918Z,9.46
2022-10-10T08:21:58.901Z,9.61
2022-10-10T08:22:58.882Z,9.67
2022-10-10T08:23:58.931Z,9.73
2022-10-10T08:24:58.947Z,9.75
2022-10-10T08:25:58.844Z,9.76
2022-10-10T08:26:58.885Z,9.79
2022-10-10T08:27:58.830Z,9.82
2022-10-10T08:28:58.857Z,9.85
2022-10-10T08:29:58.839Z,9.88
2022-10-10T08:31:00.993Z,9.91
2022-10-10T08:31:58.822Z,9.99
2022-10-10T08:32:58.786Z,10.03
2022-10-10T08:33:58.782Z,10.10
2022-10-10T08:34:58.767Z,10.15
2022-10-10T08:35:58.751Z,10.21
2022-10-10T08:36:58.734Z,10.22
2022-10-10T08:37:58.706Z,10.24
2022-10-10T08:38:58.758Z,10.26
2022-10-10T08:39:58.688Z,10.32
2022-10-10T08:40:58.680Z,10.40
2022-10-10T08:41:58.685Z,10.47
2022-10-10T08:42:59.240Z,10.60
2022-10-10T08:43:58.692Z,10.73
2022-10-10T08:44:58.651Z,10.78
2022-10-10T08:45:58.619Z,10.83
2022-10-10T08:46:58.620Z,10.84
2022-10-10T08:47:58.635Z,10.84
2022-10-10T08:48:58.595Z,10.81
2022-10-10T08:49:58.591Z,10.81
2022-10-10T08:50:58.601Z,10.78
2022-10-10T08:51:58.568Z,10.81
2022-10-10T08:52:58.549Z,10.89
2022-10-10T08:53:58.573Z,10.96
2022-10-10T08:54:58.815Z,10.98
2022-10-10T08:55:58.509Z,10.95
2022-10-10T08:56:58.522Z,10.99
2022-10-10T08:57:58.523Z,11.13
2022-10-10T08:58:58.556Z,11.29
2022-10-10T08:59:58.479Z,11.32
2022-10-10T09:00:58.489Z,11.32
2022-10-10T09:02:17.805Z,11.31
2022-10-10T09:02:58.637Z,11.27
2022-10-10T09:03:58.459Z,11.21
2022-10-10T09:04:58.426Z,11.19
2022-10-10T09:05:58.428Z,11.17
2022-10-10T09:06:58.413Z,11.19
2022-10-10T09:07:58.395Z,11.19
2022-10-10T09:08:58.388Z,11.16
2022-10-10T09:09:58.363Z,11.19
2022-10-10T09:10:58.867Z,11.20
2022-10-10T09:11:58.346Z,11.21
2022-10-10T09:12:58.376Z,11.24
2022-10-10T09:13:58.361Z,11.27
2022-10-10T09:15:02.192Z,11.24
2022-10-10T09:15:58.340Z,11.27
2022-10-10T09:16:58.304Z,11.29
2022-10-10T09:17:58.276Z,11.32
2022-10-10T09:18:58.294Z,11.35
2022-10-10T09:19:58.289Z,11.35
2022-10-10T09:20:58.668Z,11.35
2022-10-10T09:21:58.237Z,11.34
2022-10-10T09:22:58.216Z,11.53
2022-10-10T09:23:58.244Z,11.62
2022-10-10T09:24:58.221Z,11.68
2022-10-10T09:25:58.200Z,11.74
2022-10-10T09:26:58.184Z,11.75
2022-10-10T09:27:58.198Z,11.75
2022-10-10T09:28:58.195Z,11.77
2022-10-10T09:29:58.241Z,11.77
2022-10-10T09:30:58.310Z,11.78
2022-10-10T09:31:58.120Z,11.80
2022-10-10T09:32:58.118Z,11.78
2022-10-10T09:33:58.095Z,11.78
2022-10-10T09:34:58.118Z,11.85
2022-10-10T09:35:58.076Z,11.93
2022-10-10T09:36:59.480Z,11.99
2022-10-10T09:37:58.092Z,12.11
2022-10-10T09:38:58.043Z,12.37
2022-10-10T09:39:58.060Z,12.54
2022-10-10T09:40:58.321Z,12.63
2022-10-10T09:41:58.052Z,12.64
2022-10-10T09:42:58.007Z,12.62
2022-10-10T09:43:58.000Z,12.62
2022-10-10T09:44:58.004Z,12.63
2022-10-10T09:45:57.959Z,12.64
2022-10-10T09:46:57.944Z,12.62
2022-10-10T09:47:57.939Z,12.69
2022-10-10T09:48:57.983Z,12.77
2022-10-10T09:49:57.974Z,12.78
2022-10-10T09:50:58.218Z,12.77
2022-10-10T09:51:57.924Z,12.74
2022-10-10T09:52:57.917Z,12.67
2022-10-10T09:53:57.899Z,12.60
2022-10-10T09:54:57.877Z,12.56
2022-10-10T09:55:57.864Z,12.54
2022-10-10T09:56:57.860Z,12.48
2022-10-10T09:57:57.845Z,12.45
2022-10-10T09:58:57.831Z,12.44
2022-10-10T10:00:02.266Z,12.42
2022-10-10T10:00:58.210Z,12.49
2022-10-10T10:01:57.783Z,12.62
2022-10-10T10:02:57.787Z,12.66
2022-10-10T10:04:11.177Z,12.75
2022-10-10T10:04:57.807Z,12.74
2022-10-10T10:05:57.773Z,12.70
2022-10-10T10:06:57.741Z,12.77
2022-10-10T10:07:57.716Z,12.81
2022-10-10T10:08:57.708Z,12.88
2022-10-10T10:09:57.704Z,12.88
2022-10-10T10:10:57.886Z,12.87
2022-10-10T10:11:57.679Z,12.85
2022-10-10T10:12:57.657Z,12.85
2022-10-10T10:13:57.661Z,12.84
2022-10-10T10:14:57.670Z,12.79
2022-10-10T10:15:57.644Z,12.84
2022-10-10T10:16:57.614Z,12.89
2022-10-10T10:17:57.600Z,12.93
2022-10-10T10:18:57.607Z,12.97
2022-10-10T10:19:57.592Z,12.99
2022-10-10T10:20:57.898Z,13.12
2022-10-10T10:21:57.565Z,13.22
2022-10-10T10:22:57.575Z,13.37
2022-10-10T10:23:57.528Z,13.47
2022-10-10T10:24:57.532Z,13.46
2022-10-10T10:25:57.850Z,13.43
2022-10-10T10:26:57.518Z,13.30
2022-10-10T10:27:57.504Z,13.27
2022-10-10T10:28:57.664Z,13.32
2022-10-10T10:29:57.504Z,13.32
2022-10-10T10:30:57.454Z,13.38
2022-10-10T10:31:57.450Z,13.43
2022-10-10T10:32:57.453Z,13.49
2022-10-10T10:33:57.406Z,13.51
2022-10-10T10:34:57.420Z,13.51
2022-10-10T10:35:57.805Z,13.56
2022-10-10T10:36:57.394Z,13.61
2022-10-10T10:37:57.383Z,13.61
2022-10-10T10:38:57.413Z,13.59
2022-10-10T10:39:57.365Z,13.55
2022-10-10T10:40:57.353Z,13.49
2022-10-10T10:41:57.326Z,13.44
2022-10-10T10:42:57.336Z,13.41
2022-10-10T10:43:57.318Z,13.38
2022-10-10T10:44:57.329Z,13.36
2022-10-10T10:45:57.633Z,13.37
2022-10-10T10:46:57.313Z,13.36
2022-10-10T10:47:57.258Z,13.32
2022-10-10T10:48:57.300Z,13.27
2022-10-10T10:49:57.269Z,13.24
2022-10-10T10:50:57.730Z,13.21
2022-10-10T10:51:57.226Z,13.24
2022-10-10T10:52:57.210Z,13.27
2022-10-10T10:53:57.219Z,13.30
2022-10-10T10:54:57.237Z,13.43
2022-10-10T10:55:57.220Z,13.55
2022-10-10T10:57:02.144Z,13.65
2022-10-10T10:58:22.532Z,13.76
2022-10-10T10:59:22.483Z,13.83
2022-10-10T11:00:22.155Z,13.92
2022-10-10T11:01:27.965Z,13.98
2022-10-10T11:01:58.356Z,14.01
2022-10-10T11:03:05.903Z,14.01
2022-10-10T11:05:20.346Z,14.01
2022-10-10T11:05:36.750Z,14.01
2022-10-10T11:05:57.198Z,13.99
2022-10-10T11:07:17.379Z,13.96
2022-10-10T11:07:57.067Z,14.21
2022-10-10T11:08:57.053Z,14.25
2022-10-10T11:09:57.004Z,14.29
2022-10-10T11:10:57.336Z,14.27
2022-10-10T11:12:00.850Z,14.27
2022-10-10T11:12:57.002Z,14.35
2022-10-10T11:13:56.988Z,14.49
2022-10-10T11:14:56.979Z,14.53
2022-10-10T11:16:24.454Z,14.61
2022-10-10T11:16:56.957Z,14.64
2022-10-10T11:17:56.924Z,14.68
2022-10-10T11:18:56.940Z,14.65
2022-10-10T11:19:56.985Z,14.68
2022-10-10T11:20:57.356Z,14.68
2022-10-10T11:21:56.903Z,14.65
2022-10-10T11:22:56.887Z,14.65
2022-10-10T11:23:56.861Z,14.65
2022-10-10T11:24:56.861Z,14.69
2022-10-10T11:25:56.876Z,14.83
2022-10-10T11:26:56.830Z,14.86
2022-10-10T11:27:56.822Z,14.87
2022-10-10T11:28:56.864Z,14.87
2022-10-10T11:29:56.847Z,14.84
2022-10-10T11:30:57.219Z,14.83
2022-10-10T11:31:56.786Z,14.83
2022-10-10T11:32:56.759Z,14.83
2022-10-10T11:33:57.515Z,14.86
2022-10-10T11:34:56.729Z,14.88
2022-10-10T11:35:57.003Z,14.87
2022-10-10T11:36:56.742Z,15.12
2022-10-10T11:37:56.718Z,15.23
2022-10-10T11:38:56.723Z,15.30
2022-10-10T11:39:56.700Z,15.30
2022-10-10T11:40:56.665Z,15.30
2022-10-10T11:41:56.680Z,15.26
2022-10-10T11:42:56.646Z,15.17
2022-10-10T11:43:56.672Z,15.12
2022-10-10T11:44:56.641Z,15.09
2022-10-10T11:46:00.574Z,15.08
2022-10-10T11:46:56.603Z,15.03
2022-10-10T11:47:56.614Z,14.98
2022-10-10T11:48:56.662Z,14.91
2022-10-10T11:49:56.605Z,14.86
2022-10-10T11:50:56.572Z,14.88
2022-10-10T11:52:09.469Z,14.99
2022-10-10T11:52:56.541Z,15.03
2022-10-10T11:53:56.524Z,15.08
2022-10-10T11:54:56.530Z,15.09
2022-10-10T11:55:56.540Z,15.13
2022-10-10T11:56:56.487Z,15.19
2022-10-10T11:57:56.470Z,15.21
2022-10-10T11:58:56.466Z,15.26
2022-10-10T11:59:56.476Z,15.38
2022-10-10T12:00:56.439Z,15.45
2022-10-10T12:01:56.470Z,15.45
2022-10-10T12:02:56.431Z,15.46
2022-10-10T12:03:56.421Z,15.45
2022-10-10T12:04:56.412Z,15.45
2022-10-10T12:05:56.403Z,15.48
2022-10-10T12:06:56.399Z,15.49
2022-10-10T12:07:56.380Z,15.51
2022-10-10T12:08:56.364Z,15.56
2022-10-10T12:09:56.344Z,15.64
2022-10-10T12:10:56.332Z,15.84
2022-10-10T12:11:56.314Z,15.99
2022-10-10T12:12:56.312Z,16.03
2022-10-10T12:13:56.322Z,16.09
2022-10-10T12:14:56.289Z,16.12
2022-10-10T12:15:56.317Z,16.11
2022-10-10T12:16:56.266Z,16.12
2022-10-10T12:17:56.278Z,16.07
2022-10-10T12:19:03.895Z,16.03
2022-10-10T12:19:56.226Z,16.00
2022-10-10T12:20:56.218Z,15.96
2022-10-10T12:21:56.206Z,15.93
2022-10-10T12:22:56.198Z,15.89
2022-10-10T12:23:56.209Z,15.92
2022-10-10T12:24:56.188Z,15.86
2022-10-10T12:25:56.165Z,15.85
2022-10-10T12:26:56.251Z,15.76
2022-10-10T12:27:56.218Z,15.76
2022-10-10T12:28:56.174Z,15.76
2022-10-10T12:29:56.125Z,15.75
2022-10-10T12:30:58.528Z,15.74
2022-10-10T12:31:56.126Z,15.74
2022-10-10T12:32:56.101Z,15.72
2022-10-10T12:33:56.071Z,15.67
2022-10-10T12:34:56.074Z,15.64
2022-10-10T12:35:56.056Z,15.66
2022-10-10T12:36:56.083Z,15.63
2022-10-10T12:37:56.034Z,15.63
2022-10-10T12:39:00.613Z,15.70
2022-10-10T12:39:56.041Z,15.88
2022-10-10T12:40:56.009Z,15.96
2022-10-10T12:41:56.000Z,16.00
2022-10-10T12:42:56.009Z,16.01
2022-10-10T12:43:56.006Z,16.06
2022-10-10T12:44:55.963Z,16.12
2022-10-10T12:45:55.951Z,16.22
2022-10-10T12:46:55.939Z,16.25
2022-10-10T12:48:11.289Z,16.25
2022-10-10T12:48:55.942Z,16.22
2022-10-10T12:49:55.965Z,16.20
2022-10-10T12:50:55.897Z,16.14
2022-10-10T12:51:56.014Z,16.16
2022-10-10T12:52:55.866Z,16.18
2022-10-10T12:53:55.877Z,16.23
2022-10-10T12:54:55.896Z,16.30
2022-10-10T12:55:55.882Z,16.30
2022-10-10T12:56:55.850Z,16.26
2022-10-10T12:57:55.833Z,16.27
2022-10-10T12:58:55.819Z,16.35
2022-10-10T12:59:58.730Z,16.48
2022-10-10T13:00:55.818Z,16.56
2022-10-10T13:01:55.844Z,16.62
2022-10-10T13:02:55.799Z,16.65
2022-10-10T13:03:55.767Z,16.70
2022-10-10T13:04:55.744Z,16.73
2022-10-10T13:05:55.742Z,16.67
2022-10-10T13:06:55.756Z,16.63
2022-10-10T13:07:55.740Z,16.62
2022-10-10T13:08:55.720Z,16.60
2022-10-10T13:09:55.694Z,16.55
2022-10-10T13:10:55.676Z,16.53
2022-10-10T13:11:55.675Z,16.53